Time;durP1;ratioP1;P1;durP2;ratioP2;P2;SDS_P1;SDS_P2;PMS_P1;PMS_P2;Temp;Humidity;BMP_temperature;BMP_pressure;BME280_temperature;BME280_humidity;BME280_pressure;Samples;Min_cycle;Max_cycle;Signal;HPM_P1;HPM_P2
2021/05/12 00:01:56;;;;;;;7.37;7.07;;;13.50;99.90;;;;;;10440321;28;20197;-78
2021/05/12 00:06:57;;;;;;;7.80;7.50;;;13.50;99.90;;;;;;10444371;28;20240;-78
2021/05/12 00:12:00;;;;;;;8.33;7.83;;;13.50;99.90;;;;;;10454684;28;20200;-78
2021/05/12 00:17:02;;;;;;;7.43;7.13;;;13.50;99.90;;;;;;10439081;28;20217;-78
2021/05/12 00:22:15;;;;;;;8.13;7.73;;;13.50;99.90;;;;;;10438304;28;20662;-78
2021/05/12 00:27:17;;;;;;;7.50;7.20;;;13.60;99.90;;;;;;10407345;28;20297;-80
2021/05/12 00:32:19;;;;;;;8.00;7.60;;;13.60;99.90;;;;;;10453297;28;20204;-78
2021/05/12 00:37:21;;;;;;;8.23;7.83;;;13.60;99.90;;;;;;10447862;28;20648;-78
2021/05/12 00:42:28;;;;;;;8.37;7.97;;;13.60;99.90;;;;;;10446986;28;20205;-78
2021/05/12 00:47:31;;;;;;;8.00;7.70;;;13.60;99.90;;;;;;10438595;28;20228;-79
2021/05/12 00:52:33;;;;;;;8.10;7.80;;;13.60;99.90;;;;;;10453011;28;20689;-78
2021/05/12 00:57:36;;;;;;;7.83;7.33;;;13.50;99.90;;;;;;10445555;28;20213;-79
2021/05/12 01:02:38;;;;;;;7.37;7.07;;;13.50;99.90;;;;;;10411934;28;20288;-79
2021/05/12 01:07:39;;;;;;;8.43;8.00;;;13.50;99.90;;;;;;10419981;28;20240;-78
2021/05/12 01:12:42;;;;;;;7.43;7.10;;;13.50;99.90;;;;;;10453327;28;20193;-78
2021/05/12 01:17:43;;;;;;;6.93;6.60;;;13.50;99.90;;;;;;10432637;28;20235;-78
2021/05/12 01:22:46;;;;;;;6.97;6.47;;;13.50;99.90;;;;;;10447608;28;20292;-79
2021/05/12 01:27:48;;;;;;;5.90;5.60;;;13.40;99.90;;;;;;10451046;28;20217;-78
2021/05/12 01:32:49;;;;;;;5.33;5.13;;;13.40;99.90;;;;;;10405493;28;20202;-78
2021/05/12 01:37:52;;;;;;;5.80;5.50;;;13.40;99.90;;;;;;10412046;28;20307;-78
2021/05/12 01:42:54;;;;;;;5.37;5.00;;;13.40;99.90;;;;;;10452362;28;20292;-78
2021/05/12 01:47:55;;;;;;;5.43;5.20;;;13.40;99.90;;;;;;10436303;28;20299;-79
2021/05/12 01:52:58;;;;;;;5.17;4.87;;;13.30;99.90;;;;;;10442274;28;20205;-78
2021/05/12 01:58:00;;;;;;;5.87;5.57;;;13.20;99.90;;;;;;10452423;28;20275;-78
2021/05/12 02:03:04;;;;;;;5.80;5.50;;;13.20;99.90;;;;;;10452048;28;20209;-80
2021/05/12 02:08:09;;;;;;;6.23;5.90;;;13.20;99.90;;;;;;10451108;28;20213;-78
2021/05/12 02:13:12;;;;;;;5.80;5.50;;;13.20;99.90;;;;;;10445945;28;20193;-78
2021/05/12 02:18:13;;;;;;;6.57;6.17;;;13.20;99.90;;;;;;10450071;28;20747;-78
2021/05/12 02:23:18;;;;;;;6.40;6.10;;;13.20;99.90;;;;;;10440747;28;20267;-78
2021/05/12 02:28:20;;;;;;;7.33;6.90;;;13.20;99.90;;;;;;10423359;28;20290;-78
2021/05/12 02:33:22;;;;;;;6.60;6.30;;;13.30;99.90;;;;;;10420063;28;20253;-79
2021/05/12 02:38:24;;;;;;;6.70;6.30;;;13.30;99.90;;;;;;10445657;28;20283;-78
2021/05/12 02:43:26;;;;;;;6.47;6.00;;;13.30;99.90;;;;;;10429442;28;20205;-78
2021/05/12 02:48:27;;;;;;;7.60;7.00;;;13.30;99.90;;;;;;10439497;28;20225;-79
2021/05/12 02:53:30;;;;;;;7.20;6.63;;;13.30;99.90;;;;;;10420931;28;20211;-78
2021/05/12 02:58:31;;;;;;;7.70;6.90;;;13.30;99.90;;;;;;10445838;28;20225;-78
2021/05/12 03:03:34;;;;;;;7.70;7.30;;;13.40;99.90;;;;;;10438855;28;20208;-79
2021/05/12 03:08:36;;;;;;;8.63;8.13;;;13.40;99.90;;;;;;10425581;28;20225;-79
2021/05/12 03:13:38;;;;;;;8.77;8.27;;;13.40;99.90;;;;;;10440394;28;20251;-78
2021/05/12 03:18:39;;;;;;;10.13;9.30;;;13.40;99.90;;;;;;10438613;28;20286;-79
2021/05/12 03:23:42;;;;;;;9.03;8.20;;;13.50;99.90;;;;;;10428636;28;20612;-78
2021/05/12 03:28:44;;;;;;;9.53;8.77;;;13.50;99.90;;;;;;10447119;28;20228;-80
2021/05/12 03:33:46;;;;;;;9.63;9.03;;;13.50;99.90;;;;;;10435635;28;20201;-78
2021/05/12 03:38:48;;;;;;;10.10;9.40;;;13.50;99.90;;;;;;10436622;28;20228;-78
2021/05/12 03:43:50;;;;;;;10.50;9.53;;;13.50;99.90;;;;;;10445038;28;20212;-79
2021/05/12 03:48:52;;;;;;;11.43;10.43;;;13.50;99.90;;;;;;10487434;22;20227;-81
2021/05/12 03:53:54;;;;;;;11.47;10.37;;;13.50;99.90;;;;;;10524631;28;20246;-82
2021/05/12 03:58:56;;;;;;;11.93;10.93;;;13.60;99.90;;;;;;10542999;28;20763;-81
2021/05/12 04:03:59;;;;;;;11.30;10.40;;;13.60;99.90;;;;;;10538602;28;20753;-80
2021/05/12 04:09:01;;;;;;;12.93;11.37;;;13.60;99.90;;;;;;10544984;28;20223;-82
2021/05/12 04:14:03;;;;;;;12.00;11.10;;;13.60;99.90;;;;;;10544432;28;20283;-82
2021/05/12 04:19:05;;;;;;;12.73;11.60;;;13.60;99.90;;;;;;10521358;28;20315;-82
2021/05/12 04:24:08;;;;;;;10.00;9.10;;;13.70;99.90;;;;;;10542933;28;20718;-82
2021/05/12 04:29:10;;;;;;;11.23;10.00;;;13.70;99.90;;;;;;10545561;28;20215;-82
2021/05/12 04:34:12;;;;;;;11.50;10.40;;;13.70;99.90;;;;;;10546309;28;20210;-82
2021/05/12 04:39:14;;;;;;;9.30;8.50;;;13.70;99.90;;;;;;10529915;28;20303;-81
2021/05/12 04:44:16;;;;;;;10.47;9.30;;;13.70;99.90;;;;;;10524419;28;20306;-82
2021/05/12 04:49:18;;;;;;;10.10;9.20;;;13.70;99.90;;;;;;10489795;28;20318;-80
2021/05/12 04:54:22;;;;;;;9.60;8.90;;;13.70;99.90;;;;;;10537429;28;20621;-78
2021/05/12 04:59:24;;;;;;;9.50;8.43;;;13.70;99.90;;;;;;10538269;28;20695;-79
2021/05/12 05:04:26;;;;;;;8.97;8.37;;;13.70;99.90;;;;;;10499485;28;21079;-78
2021/05/12 05:09:28;;;;;;;8.73;7.97;;;13.70;99.90;;;;;;10521137;28;20223;-82
2021/05/12 05:14:30;;;;;;;7.63;6.90;;;13.70;99.90;;;;;;10514246;28;20283;-81
2021/05/12 05:19:32;;;;;;;8.07;7.47;;;13.70;99.90;;;;;;10510052;28;20323;-83
2021/05/12 05:24:34;;;;;;;7.50;6.80;;;13.70;99.90;;;;;;10524640;28;20200;-81
2021/05/12 05:29:37;;;;;;;7.50;6.83;;;13.60;99.90;;;;;;10492457;28;20777;-84
2021/05/12 05:34:39;;;;;;;7.20;6.67;;;13.70;99.90;;;;;;10507356;28;20724;-83
2021/05/12 05:40:09;;;;;;;7.23;6.73;;;13.70;99.90;;;;;;10508267;28;20231;-83
2021/05/12 05:45:29;;;;;;;6.70;5.90;;;13.70;99.90;;;;;;10537877;28;20196;-82
2021/05/12 05:50:49;;;;;;;7.30;6.53;;;13.70;99.90;;;;;;10535294;28;20224;-83
2021/05/12 05:56:12;;;;;;;8.40;5.90;;;13.70;99.90;;;;;;10512948;28;20203;-83
2021/05/12 06:01:43;;;;;;;5.63;5.13;;;13.70;99.90;;;;;;10486988;28;20707;-83
2021/05/12 06:06:44;;;;;;;6.20;5.70;;;13.80;99.90;;;;;;10522626;28;20211;-83
2021/05/12 06:12:06;;;;;;;6.87;4.80;;;13.80;99.90;;;;;;10505971;28;20251;-83
2021/05/12 06:17:27;;;;;;;7.40;4.40;;;13.80;99.90;;;;;;10541322;28;20219;-83
2021/05/12 06:22:48;;;;;;;4.37;4.03;;;13.90;99.90;;;;;;10548461;28;20202;-82
2021/05/12 06:28:09;;;;;;;7.10;3.53;;;13.90;99.90;;;;;;10547478;28;20281;-83
2021/05/12 06:33:29;;;;;;;4.00;3.70;;;13.90;99.90;;;;;;10548021;28;20196;-83
2021/05/12 06:38:49;;;;;;;5.37;3.70;;;13.90;99.90;;;;;;10539380;28;20219;-83
2021/05/12 06:43:52;;;;;;;5.03;4.00;;;13.90;99.90;;;;;;10542953;28;20241;-82
2021/05/12 06:48:54;;;;;;;4.90;4.07;;;14.00;99.90;;;;;;10538191;28;20235;-83
2021/05/12 06:53:55;;;;;;;4.40;4.00;;;14.10;99.90;;;;;;10545438;28;20613;-82
2021/05/12 06:58:58;;;;;;;3.57;3.10;;;14.20;99.90;;;;;;10545831;28;20299;-82
2021/05/12 07:04:00;;;;;;;6.23;3.70;;;14.20;99.90;;;;;;10546061;28;20210;-83
2021/05/12 07:09:01;;;;;;;3.30;3.10;;;14.20;99.90;;;;;;10544465;28;20748;-82
2021/05/12 07:14:06;;;;;;;3.90;3.30;;;14.20;99.90;;;;;;10524429;28;20211;-83
2021/05/12 07:19:08;;;;;;;3.23;2.93;;;14.30;99.90;;;;;;10486779;28;20734;-82
2021/05/12 07:24:10;;;;;;;4.00;3.00;;;14.30;99.90;;;;;;10533250;28;20703;-83
2021/05/12 07:29:14;;;;;;;4.20;3.60;;;14.40;99.90;;;;;;10533491;28;20212;-84
2021/05/12 07:34:15;;;;;;;4.40;3.53;;;14.40;99.90;;;;;;10544421;28;20596;-83
2021/05/12 07:39:17;;;;;;;3.77;3.47;;;14.40;99.90;;;;;;10534020;28;20219;-82
2021/05/12 07:44:19;;;;;;;3.70;3.43;;;14.40;99.90;;;;;;10529003;28;20199;-82
2021/05/12 07:49:21;;;;;;;3.07;2.87;;;14.40;99.90;;;;;;10546920;28;20238;-83
2021/05/12 07:54:23;;;;;;;4.47;3.40;;;14.40;99.90;;;;;;10525295;28;20227;-82
2021/05/12 07:59:25;;;;;;;2.83;2.50;;;14.40;99.90;;;;;;10534467;28;20219;-81
2021/05/12 08:04:27;;;;;;;5.70;3.30;;;14.40;99.90;;;;;;10527202;28;20203;-81
2021/05/12 08:09:29;;;;;;;4.20;3.13;;;14.30;99.90;;;;;;10539838;28;20340;-81
2021/05/12 08:14:31;;;;;;;3.50;2.60;;;14.30;99.90;;;;;;10544195;28;20249;-81
2021/05/12 08:19:33;;;;;;;4.70;3.27;;;14.30;99.90;;;;;;10541951;28;20638;-81
2021/05/12 08:24:35;;;;;;;3.60;2.93;;;14.30;99.90;;;;;;10536538;28;20219;-81
2021/05/12 08:29:40;;;;;;;6.80;3.23;;;14.30;99.90;;;;;;10503541;28;20221;-81
2021/05/12 08:34:43;;;;;;;5.23;3.23;;;14.30;99.90;;;;;;10529669;28;20223;-81
2021/05/12 08:39:44;;;;;;;2.83;2.63;;;14.30;99.90;;;;;;10516497;28;20224;-81
2021/05/12 08:44:48;;;;;;;4.23;2.80;;;14.30;99.90;;;;;;10545353;28;20766;-81
2021/05/12 08:49:53;;;;;;;2.97;2.77;;;14.30;99.90;;;;;;10537874;28;20684;-81
2021/05/12 08:54:56;;;;;;;2.70;2.50;;;14.30;99.90;;;;;;10537791;28;20682;-81
2021/05/12 08:59:58;;;;;;;4.50;3.13;;;14.30;99.90;;;;;;10535252;28;20561;-81
2021/05/12 09:05:00;;;;;;;2.90;2.70;;;14.40;99.90;;;;;;10536684;28;20567;-81
2021/05/12 09:10:03;;;;;;;3.90;3.00;;;14.40;99.90;;;;;;10515361;28;20212;-81
2021/05/12 09:15:08;;;;;;;4.60;2.87;;;14.50;99.90;;;;;;10526032;28;20191;-82
2021/05/12 09:20:30;;;;;;;3.50;2.87;;;14.50;99.90;;;;;;10537538;28;20220;-83
2021/05/12 09:25:34;;;;;;;6.07;4.13;;;14.60;99.90;;;;;;10521396;28;20616;-83
2021/05/12 09:30:37;;;;;;;3.57;3.27;;;14.60;99.90;;;;;;10499528;28;20216;-82
2021/05/12 09:35:43;;;;;;;5.87;2.93;;;14.60;99.90;;;;;;10532534;28;20207;-82
2021/05/12 09:40:44;;;;;;;4.00;3.20;;;14.70;99.90;;;;;;10529878;28;20722;-83
2021/05/12 09:45:47;;;;;;;3.57;3.27;;;14.60;99.90;;;;;;10526040;28;20282;-81
2021/05/12 09:50:48;;;;;;;2.97;2.77;;;14.60;99.90;;;;;;10537707;28;20350;-82
2021/05/12 09:55:50;;;;;;;4.27;3.17;;;14.50;99.90;;;;;;10544579;28;20241;-82
2021/05/12 10:00:53;;;;;;;4.33;4.00;;;14.50;99.90;;;;;;10527232;28;20606;-83
2021/05/12 10:05:56;;;;;;;4.00;3.60;;;14.50;99.90;;;;;;10545336;28;20212;-83
2021/05/12 10:11:01;;;;;;;4.37;3.30;;;14.50;99.90;;;;;;10532790;28;20221;-83
2021/05/12 10:16:05;;;;;;;5.20;3.37;;;14.50;99.90;;;;;;10500802;28;20608;-83
2021/05/12 10:21:09;;;;;;;5.07;2.83;;;14.60;99.90;;;;;;10528951;28;20262;-84
2021/05/12 10:26:11;;;;;;;6.97;3.70;;;14.70;99.90;;;;;;10528940;28;20197;-85
2021/05/12 10:31:14;;;;;;;4.13;3.20;;;14.80;99.90;;;;;;10487156;28;20216;-84
2021/05/12 10:36:16;;;;;;;3.37;3.07;;;14.90;99.90;;;;;;10512264;28;20656;-83
2021/05/12 10:41:46;;;;;;;4.40;3.30;;;14.90;99.90;;;;;;10500659;28;20231;-83
2021/05/12 10:47:06;;;;;;;2.80;2.70;;;14.90;99.90;;;;;;10517520;28;20204;-82
2021/05/12 10:52:09;;;;;;;3.87;3.57;;;14.90;99.90;;;;;;10531017;28;20603;-83
2021/05/12 10:57:31;;;;;;;3.40;3.17;;;14.90;99.90;;;;;;10501590;28;20722;-83
2021/05/12 11:03:02;;;;;;;3.80;3.30;;;14.80;99.90;;;;;;10521389;28;20204;-85
2021/05/12 11:08:15;;;;;;;7.13;3.67;;;14.80;99.90;;;;;;10496989;28;20219;-84
2021/05/12 11:13:22;;;;;;;3.77;3.47;;;14.80;99.90;;;;;;10525212;28;20207;-83
2021/05/12 11:18:51;;;;;;;4.97;3.30;;;14.90;99.90;;;;;;10491816;28;20255;-83
2021/05/12 11:24:11;;;;;;;3.53;2.93;;;15.00;99.90;;;;;;10526877;28;20657;-83
2021/05/12 11:34:36;;;;;;;5.17;3.90;;;15.40;99.90;;;;;;10501351;28;20203;-85
2021/05/12 11:39:38;;;;;;;3.47;3.20;;;15.70;99.90;;;;;;10502585;28;20234;-83
2021/05/12 11:44:40;;;;;;;3.87;3.20;;;16.00;99.90;;;;;;10500468;28;20203;-84
2021/05/12 11:49:42;;;;;;;3.20;2.90;;;16.30;99.90;;;;;;10520720;28;20769;-83
2021/05/12 11:54:44;;;;;;;5.70;3.00;;;16.40;99.90;;;;;;10478157;28;20221;-84
2021/05/12 11:59:46;;;;;;;6.90;3.40;;;16.50;99.90;;;;;;10514155;28;20277;-84
2021/05/12 12:04:53;;;;;;;3.53;3.33;;;16.60;99.90;;;;;;10523739;28;20207;-83
2021/05/12 12:10:00;;;;;;;3.50;3.20;;;16.80;99.90;;;;;;10517876;28;20216;-84
2021/05/12 12:15:07;;;;;;;3.77;3.23;;;16.90;99.90;;;;;;10534865;28;20206;-83
2021/05/12 12:20:11;;;;;;;5.87;2.70;;;16.90;99.90;;;;;;10527844;28;20603;-83
2021/05/12 12:25:13;;;;;;;4.13;2.83;;;16.90;99.90;;;;;;10518268;28;20210;-83
2021/05/12 12:30:17;;;;;;;4.70;3.20;;;16.90;99.90;;;;;;10522340;28;20223;-83
2021/05/12 12:35:20;;;;;;;3.93;3.60;;;16.80;99.90;;;;;;10490272;28;20188;-83
2021/05/12 12:40:23;;;;;;;3.40;3.10;;;16.70;99.90;;;;;;10512391;28;20235;-82
2021/05/12 12:45:29;;;;;;;5.43;3.07;;;16.70;99.90;;;;;;10520691;28;20200;-84
2021/05/12 12:50:33;;;;;;;4.63;2.80;;;16.70;99.90;;;;;;10526057;28;20607;-84
2021/05/12 12:55:37;;;;;;;5.80;3.20;;;16.60;99.90;;;;;;10477803;28;20226;-84
2021/05/12 13:00:40;;;;;;;5.33;3.23;;;16.70;99.90;;;;;;10517048;28;20675;-84
2021/05/12 13:05:44;;;;;;;3.77;3.20;;;16.80;99.90;;;;;;10490722;28;20204;-85
2021/05/12 13:10:47;;;;;;;3.00;2.80;;;16.80;99.90;;;;;;10513216;28;20221;-83
2021/05/12 13:15:48;;;;;;;5.43;3.40;;;16.90;99.90;;;;;;10491881;28;20203;-83
2021/05/12 13:20:52;;;;;;;3.60;2.97;;;17.00;99.90;;;;;;10507208;28;20216;-84
2021/05/12 13:25:56;;;;;;;4.03;3.30;;;17.00;99.90;;;;;;10508672;28;20619;-85
2021/05/12 13:30:58;;;;;;;3.80;3.30;;;17.10;99.90;;;;;;10514475;28;20255;-85
2021/05/12 13:36:01;;;;;;;3.50;3.30;;;17.20;99.90;;;;;;10517084;28;20262;-85
2021/05/12 13:41:02;;;;;;;6.43;3.20;;;17.30;99.90;;;;;;10504649;28;20224;-83
2021/05/12 13:46:04;;;;;;;4.03;3.63;;;17.20;99.90;;;;;;10519721;28;20195;-84
2021/05/12 13:51:07;;;;;;;4.97;3.30;;;17.20;99.90;;;;;;10526876;28;20285;-83
2021/05/12 13:56:14;;;;;;;2.90;2.70;;;17.20;99.90;;;;;;10509930;28;20193;-84
2021/05/12 14:06:33;;;;;;;3.43;3.13;;;17.40;99.90;;;;;;10505340;28;20249;-84
2021/05/12 14:11:36;;;;;;;3.53;3.23;;;17.50;99.90;;;;;;10494479;28;20216;-84
2021/05/12 14:16:49;;;;;;;4.60;3.03;;;17.50;99.90;;;;;;10505077;28;20215;-84
2021/05/12 14:21:54;;;;;;;7.77;3.50;;;17.60;99.90;;;;;;10492693;28;20224;-85
2021/05/12 14:26:57;;;;;;;5.00;2.67;;;17.60;99.90;;;;;;10514820;28;20305;-85
2021/05/12 14:32:00;;;;;;;5.37;3.10;;;17.60;99.40;;;;;;10504369;28;20567;-85
2021/05/12 14:37:03;;;;;;;3.30;3.00;;;17.70;99.80;;;;;;10528799;28;20585;-85
2021/05/12 14:42:07;;;;;;;3.00;2.80;;;17.60;99.90;;;;;;10515096;28;20303;-84
2021/05/12 14:47:09;;;;;;;4.67;2.50;;;17.50;98.70;;;;;;10508057;28;20196;-85
2021/05/12 14:52:19;;;;;;;3.37;2.90;;;17.50;99.90;;;;;;10477008;28;638406;-84
2021/05/12 14:57:51;;;;;;;6.47;2.97;;;17.40;99.90;;;;;;10492250;28;20254;-84
2021/05/12 15:02:58;;;;;;;2.97;2.70;;;17.20;99.90;;;;;;10504809;28;20590;-85
2021/05/12 15:08:04;;;;;;;3.80;2.70;;;17.20;99.90;;;;;;10517117;28;20221;-84
2021/05/12 15:13:06;;;;;;;4.03;2.93;;;17.30;99.70;;;;;;10512645;28;20919;-85
2021/05/12 15:18:07;;;;;;;4.80;2.60;;;17.30;99.80;;;;;;10507782;28;20300;-85
2021/05/12 15:23:10;;;;;;;3.07;2.77;;;17.30;99.10;;;;;;10532070;28;20585;-84
2021/05/12 15:28:12;;;;;;;3.80;2.33;;;17.30;98.70;;;;;;10495599;28;20242;-84
2021/05/12 15:33:14;;;;;;;3.70;2.90;;;17.30;98.60;;;;;;10528807;28;20196;-84
2021/05/12 15:38:17;;;;;;;2.37;2.17;;;17.20;99.40;;;;;;10521125;28;20302;-83
2021/05/12 15:43:20;;;;;;;3.00;2.70;;;17.20;97.40;;;;;;10499590;28;20666;-84
2021/05/12 15:48:23;;;;;;;3.47;2.70;;;17.10;97.10;;;;;;10525595;28;20220;-83
2021/05/12 15:53:26;;;;;;;6.40;3.03;;;17.10;99.90;;;;;;10496178;28;20633;-83
2021/05/12 15:58:27;;;;;;;4.67;2.40;;;17.10;99.50;;;;;;10493707;28;20290;-83
2021/05/12 16:03:29;;;;;;;5.70;2.70;;;17.00;99.90;;;;;;10497559;28;20573;-83
2021/05/12 16:08:33;;;;;;;2.47;2.27;;;17.00;99.60;;;;;;10491623;28;20286;-84
2021/05/12 16:13:36;;;;;;;2.23;1.80;;;17.10;99.00;;;;;;10499806;28;20295;-83
2021/05/12 16:18:38;;;;;;;1.97;1.87;;;17.10;99.90;;;;;;10508081;28;20303;-83
2021/05/12 16:23:43;;;;;;;2.23;2.03;;;17.10;99.30;;;;;;10539109;28;20211;-82
2021/05/12 16:28:45;;;;;;;2.57;2.37;;;17.10;99.90;;;;;;10526774;28;20698;-83
2021/05/12 16:33:46;;;;;;;2.87;2.33;;;17.10;99.80;;;;;;10535311;28;20199;-83
2021/05/12 16:38:49;;;;;;;2.70;2.20;;;17.00;97.00;;;;;;10539341;28;20219;-83
2021/05/12 16:43:50;;;;;;;4.77;2.10;;;17.00;99.60;;;;;;10522417;28;20667;-83
2021/05/12 16:48:55;;;;;;;2.50;2.10;;;16.90;96.90;;;;;;10536299;28;20680;-82
2021/05/12 16:53:59;;;;;;;2.47;2.20;;;16.80;99.90;;;;;;10541206;28;20192;-83
2021/05/12 16:59:01;;;;;;;4.90;2.30;;;16.70;99.90;;;;;;10539848;28;20227;-83
2021/05/12 17:04:03;;;;;;;2.97;2.40;;;16.60;99.90;;;;;;10533800;28;20842;-83
2021/05/12 17:09:06;;;;;;;3.87;2.20;;;16.50;99.90;;;;;;10540370;28;20239;-83
2021/05/12 17:14:09;;;;;;;3.70;2.20;;;16.40;99.90;;;;;;10541289;28;20207;-83
2021/05/12 17:19:12;;;;;;;3.30;1.90;;;16.30;99.90;;;;;;10542939;28;20220;-83
2021/05/12 17:24:14;;;;;;;3.00;2.80;;;16.30;99.90;;;;;;10541433;28;20208;-83
2021/05/12 17:29:17;;;;;;;3.50;2.77;;;16.30;99.90;;;;;;10532342;28;20317;-83
2021/05/12 17:34:20;;;;;;;2.93;2.60;;;16.20;99.90;;;;;;10523579;28;20209;-83
2021/05/12 17:39:23;;;;;;;6.30;2.77;;;16.10;99.90;;;;;;10531601;28;20233;-83
2021/05/12 17:44:25;;;;;;;4.13;2.73;;;16.10;99.90;;;;;;10537632;28;20249;-81
2021/05/12 17:49:28;;;;;;;3.23;2.93;;;16.10;99.90;;;;;;10533853;28;20223;-82
2021/05/12 17:54:31;;;;;;;3.13;2.40;;;16.00;99.90;;;;;;10547912;28;20717;-83
2021/05/12 17:59:33;;;;;;;4.33;3.13;;;16.00;99.90;;;;;;10546379;28;20208;-83
2021/05/12 18:04:35;;;;;;;2.97;2.77;;;15.90;99.90;;;;;;10520854;28;20203;-83
2021/05/12 18:09:38;;;;;;;2.90;2.63;;;15.90;99.90;;;;;;10514509;28;20302;-82
2021/05/12 18:20:05;;;;;;;4.47;3.40;;;15.80;99.90;;;;;;10468010;28;20609;-83
2021/05/12 18:25:09;;;;;;;4.30;2.63;;;15.70;99.90;;;;;;10549266;28;20191;-83
2021/05/12 18:30:13;;;;;;;3.20;2.60;;;15.60;99.90;;;;;;10508441;28;20223;-83
2021/05/12 18:35:19;;;;;;;4.60;3.20;;;15.50;99.90;;;;;;10509383;28;20565;-82
2021/05/12 18:40:22;;;;;;;3.90;3.40;;;15.40;99.90;;;;;;10512413;28;20230;-83
2021/05/12 18:45:25;;;;;;;6.43;5.03;;;15.40;99.90;;;;;;10517687;28;20269;-82
2021/05/12 18:50:27;;;;;;;4.07;3.73;;;15.30;99.90;;;;;;10515627;28;20224;-83
2021/05/12 18:55:30;;;;;;;3.47;3.17;;;15.20;99.90;;;;;;10515122;28;20200;-83
2021/05/12 19:00:32;;;;;;;3.43;3.17;;;15.10;99.90;;;;;;10514979;28;20209;-83
2021/05/12 19:05:36;;;;;;;3.23;2.97;;;15.10;99.90;;;;;;10507551;28;20234;-82
2021/05/12 19:10:45;;;;;;;11.97;4.40;;;15.00;99.90;;;;;;10510085;28;20270;-83
2021/05/12 19:15:51;;;;;;;4.00;2.90;;;15.00;99.90;;;;;;10514806;28;20202;-82
2021/05/12 19:20:56;;;;;;;3.83;3.00;;;14.90;99.90;;;;;;10511417;28;20247;-83
2021/05/12 19:26:06;;;;;;;4.33;3.37;;;14.90;99.90;;;;;;10498495;28;20208;-83
2021/05/12 19:41:47;;;;;;;4.30;3.30;;;14.80;99.90;;;;;;10546035;28;20664;-84
2021/05/12 19:46:48;;;;;;;3.57;3.27;;;14.60;99.90;;;;;;10523458;28;20250;-83
2021/05/12 19:51:50;;;;;;;3.90;3.60;;;14.60;99.90;;;;;;10527151;28;20248;-83
2021/05/12 20:02:14;;;;;;;3.70;3.40;;;14.50;99.90;;;;;;10522234;28;20234;-82
2021/05/12 20:07:19;;;;;;;7.20;3.70;;;14.50;99.90;;;;;;10503075;28;20249;-83
2021/05/12 20:12:27;;;;;;;7.63;3.53;;;14.50;99.90;;;;;;10513668;28;20206;-82
2021/05/12 20:17:29;;;;;;;5.00;3.77;;;14.50;99.90;;;;;;10532277;28;20218;-82
2021/05/12 20:22:30;;;;;;;5.60;2.90;;;14.50;99.90;;;;;;10536814;28;20321;-82
2021/05/12 20:27:33;;;;;;;4.33;3.93;;;14.50;99.90;;;;;;10520989;28;20211;-83
2021/05/12 20:32:39;;;;;;;7.20;3.70;;;14.50;99.90;;;;;;10523796;28;20668;-83
2021/05/12 20:37:41;;;;;;;6.20;3.43;;;14.40;99.90;;;;;;10524583;28;20574;-82
2021/05/12 20:42:43;;;;;;;3.33;3.03;;;14.30;99.90;;;;;;10531521;28;20302;-83
2021/05/12 20:47:45;;;;;;;6.10;3.60;;;14.20;99.90;;;;;;10511868;28;20228;-82
2021/05/12 20:52:47;;;;;;;3.47;3.07;;;14.20;99.90;;;;;;10529168;28;20651;-83
2021/05/12 20:57:49;;;;;;;4.73;2.90;;;14.10;99.90;;;;;;10539528;28;20254;-82
2021/05/12 21:02:51;;;;;;;4.20;3.33;;;14.00;99.90;;;;;;10531277;28;20637;-83
2021/05/12 21:07:53;;;;;;;4.47;3.40;;;14.00;99.90;;;;;;10500412;28;20303;-83
2021/05/12 21:12:55;;;;;;;3.40;3.20;;;14.00;99.90;;;;;;10527981;28;20192;-83
2021/05/12 21:17:57;;;;;;;4.03;3.53;;;14.00;99.90;;;;;;10537281;28;20219;-83
2021/05/12 21:23:21;;;;;;;6.10;3.30;;;14.00;99.90;;;;;;10535056;28;20218;-83
2021/05/12 21:28:24;;;;;;;5.10;3.57;;;14.00;99.90;;;;;;10557319;28;20224;-82
2021/05/12 21:33:27;;;;;;;4.60;3.60;;;14.00;99.90;;;;;;10538735;28;20208;-82
2021/05/12 21:38:29;;;;;;;3.40;2.73;;;14.00;99.90;;;;;;10527953;28;20227;-82
2021/05/12 21:43:32;;;;;;;3.77;2.77;;;13.90;99.90;;;;;;10512422;28;20207;-82
2021/05/12 21:48:33;;;;;;;5.47;2.90;;;13.80;99.90;;;;;;10551956;28;20227;-82
2021/05/12 21:53:35;;;;;;;3.07;2.67;;;13.80;99.90;;;;;;10532810;28;20258;-82
2021/05/12 21:58:38;;;;;;;4.17;2.80;;;13.70;99.90;;;;;;10532805;28;20621;-83
2021/05/12 22:03:43;;;;;;;7.40;3.30;;;13.60;99.90;;;;;;10524587;28;20196;-83
2021/05/12 22:09:08;;;;;;;2.50;2.20;;;13.60;99.90;;;;;;10532261;28;20330;-83
2021/05/12 22:25:01;;;;;;;2.70;2.50;;;13.50;99.90;;;;;;10516198;28;20188;-83
2021/05/12 22:30:13;;;;;;;3.07;2.83;;;13.50;99.90;;;;;;10537943;28;20218;-83
2021/05/12 22:35:17;;;;;;;7.53;2.80;;;13.50;99.90;;;;;;10527587;28;20281;-83
2021/05/12 22:40:21;;;;;;;3.30;3.00;;;13.60;99.90;;;;;;10505838;28;20224;-82
2021/05/12 22:45:29;;;;;;;2.90;2.67;;;13.60;99.90;;;;;;10513016;28;20220;-82
2021/05/12 22:50:32;;;;;;;6.73;3.37;;;13.60;99.90;;;;;;10485477;28;20769;-83
2021/05/12 23:00:56;;;;;;;3.43;3.23;;;13.70;99.90;;;;;;10518737;28;20640;-84
2021/05/12 23:05:57;;;;;;;3.23;2.77;;;13.70;99.90;;;;;;10531583;28;20208;-83
2021/05/12 23:10:59;;;;;;;3.67;2.30;;;13.70;99.90;;;;;;10526506;28;20215;-84
2021/05/12 23:16:01;;;;;;;4.43;2.43;;;13.70;99.90;;;;;;10526755;28;20207;-83
2021/05/12 23:21:04;;;;;;;3.20;2.90;;;13.70;99.90;;;;;;10531235;28;20231;-83
2021/05/12 23:26:06;;;;;;;3.73;2.83;;;13.70;99.90;;;;;;10539913;28;20706;-83
2021/05/12 23:31:08;;;;;;;2.67;2.47;;;13.70;99.90;;;;;;10552639;28;20699;-83
2021/05/12 23:36:10;;;;;;;3.23;3.03;;;13.70;99.90;;;;;;10554332;28;20691;-83
2021/05/12 23:41:15;;;;;;;5.23;3.00;;;13.70;99.90;;;;;;10514062;28;20723;-84
2021/05/12 23:46:17;;;;;;;2.80;2.50;;;13.60;99.90;;;;;;10517966;28;20245;-82
2021/05/12 23:51:22;;;;;;;2.87;2.60;;;13.60;99.90;;;;;;10531623;28;20259;-83
2021/05/12 23:56:26;;;;;;;4.03;2.83;;;13.60;99.90;;;;;;10545547;28;20195;-82
